Time;durP1;ratioP1;P1;durP2;ratioP2;P2;SDS_P1;SDS_P2;PMS_P1;PMS_P2;Temp;Humidity;BMP_temperature;BMP_pressure;BME280_temperature;BME280_humidity;BME280_pressure;Samples;Min_cycle;Max_cycle;Signal;HPM_P1;HPM_P2
2022/05/25 00:01:04;;;;;;;9.27;7.70;;;10.60;99.90;;;;;;4976634;28;20034;-74
2022/05/25 00:03:32;;;;;;;9.32;7.32;;;10.70;99.90;;;;;;4975218;28;20515;-74
2022/05/25 00:05:59;;;;;;;7.88;7.10;;;10.60;99.90;;;;;;4974662;28;20047;-74
2022/05/25 00:08:25;;;;;;;7.70;6.47;;;10.60;99.90;;;;;;4962484;28;20133;-74
2022/05/25 00:10:51;;;;;;;7.13;6.20;;;10.60;99.90;;;;;;4981644;28;20042;-74
2022/05/25 00:13:17;;;;;;;7.93;6.30;;;10.60;99.90;;;;;;4973931;28;20073;-74
2022/05/25 00:15:43;;;;;;;7.30;6.60;;;10.60;99.90;;;;;;4975508;28;20034;-74
2022/05/25 00:18:08;;;;;;;8.35;6.32;;;10.50;99.90;;;;;;4978614;28;20108;-74
2022/05/25 00:20:35;;;;;;;7.05;6.15;;;10.50;99.90;;;;;;4975368;28;20034;-74
2022/05/25 00:23:01;;;;;;;7.32;6.60;;;10.50;99.90;;;;;;4975332;28;20079;-74
2022/05/25 00:25:36;;;;;;;6.63;5.97;;;10.50;99.90;;;;;;4993767;28;20045;-74
2022/05/25 00:28:07;;;;;;;6.55;5.95;;;10.50;99.90;;;;;;4992435;28;20038;-74
2022/05/25 00:30:33;;;;;;;7.57;5.80;;;10.50;99.90;;;;;;4982535;28;20113;-74
2022/05/25 00:33:02;;;;;;;7.75;5.88;;;10.50;99.90;;;;;;4978292;28;20048;-74
2022/05/25 00:35:31;;;;;;;5.53;5.05;;;10.40;99.90;;;;;;4977998;28;20051;-74
2022/05/25 00:37:57;;;;;;;5.72;5.20;;;10.40;99.90;;;;;;4975311;28;20406;-74
2022/05/25 00:40:33;;;;;;;6.30;5.70;;;10.40;99.90;;;;;;4971577;28;20050;-74
2022/05/25 00:42:58;;;;;;;6.13;5.38;;;10.40;99.90;;;;;;4977610;28;20164;-74
2022/05/25 00:45:24;;;;;;;6.20;5.72;;;10.40;99.90;;;;;;4977528;28;20129;-74
2022/05/25 00:47:52;;;;;;;8.88;5.90;;;10.40;99.90;;;;;;4991601;28;20038;-74
2022/05/25 00:50:20;;;;;;;5.93;5.43;;;10.40;99.90;;;;;;4992390;28;20078;-74
2022/05/25 00:52:48;;;;;;;7.18;5.57;;;10.40;99.90;;;;;;4977209;28;20121;-74
2022/05/25 00:55:28;;;;;;;5.88;5.28;;;10.30;99.90;;;;;;4978582;28;20039;-74
2022/05/25 00:57:57;;;;;;;5.72;5.00;;;10.30;99.90;;;;;;4975250;28;20039;-74
2022/05/25 01:00:26;;;;;;;5.30;4.70;;;10.30;99.90;;;;;;4974689;28;20068;-74
2022/05/25 01:03:00;;;;;;;5.32;4.90;;;10.30;99.90;;;;;;4973113;28;20092;-74
2022/05/25 01:05:52;;;;;;;7.95;5.45;;;10.20;99.90;;;;;;4974431;28;20038;-74
2022/05/25 01:08:29;;;;;;;7.13;5.03;;;10.20;99.90;;;;;;4981924;28;20493;-74
2022/05/25 01:11:07;;;;;;;7.55;5.38;;;10.20;99.90;;;;;;4964890;28;20437;-74
2022/05/25 01:13:51;;;;;;;7.03;5.35;;;10.20;99.90;;;;;;4969007;28;20050;-74
2022/05/25 01:16:38;;;;;;;7.90;5.75;;;10.10;99.90;;;;;;4974318;28;20042;-74
2022/05/25 01:19:41;;;;;;;6.80;6.20;;;10.10;99.90;;;;;;4974323;28;20556;-74
2022/05/25 01:22:47;;;;;;;6.90;5.90;;;10.10;99.90;;;;;;4964198;28;20038;-74
2022/05/25 01:25:40;;;;;;;6.57;5.97;;;10.10;99.90;;;;;;4960423;28;20119;-74
2022/05/25 01:28:36;;;;;;;7.63;6.00;;;10.00;99.90;;;;;;4970579;28;20038;-74
2022/05/25 01:31:07;;;;;;;7.95;6.43;;;10.00;99.90;;;;;;4974233;28;20069;-74
2022/05/25 01:33:42;;;;;;;10.30;6.90;;;9.90;99.90;;;;;;4971492;28;20046;-74
2022/05/25 01:36:18;;;;;;;8.88;7.30;;;9.90;99.90;;;;;;4971147;28;20034;-74
2022/05/25 01:38:52;;;;;;;9.23;7.57;;;9.90;99.90;;;;;;4974310;28;20096;-74
2022/05/25 01:41:37;;;;;;;11.40;8.75;;;9.90;99.90;;;;;;4981463;28;20557;-74
2022/05/25 01:44:26;;;;;;;9.57;8.60;;;10.00;99.90;;;;;;4997709;28;20077;-74
2022/05/25 01:46:56;;;;;;;13.05;9.18;;;10.00;99.90;;;;;;4967818;28;20070;-74
2022/05/25 01:49:27;;;;;;;12.13;9.02;;;10.00;99.90;;;;;;4973765;28;20448;-74
2022/05/25 01:52:02;;;;;;;11.20;9.18;;;10.10;99.90;;;;;;4991284;28;20089;-74
2022/05/25 01:54:32;;;;;;;10.55;9.45;;;10.10;99.90;;;;;;4988403;28;20050;-74
2022/05/25 01:57:03;;;;;;;11.88;9.15;;;10.10;99.90;;;;;;4974070;28;20034;-74
2022/05/25 01:59:29;;;;;;;13.23;9.48;;;10.10;99.90;;;;;;4973883;28;20058;-74
2022/05/25 02:04:45;;;;;;;12.60;10.23;;;10.10;99.90;;;;;;4974251;28;20042;-74
2022/05/25 02:07:30;;;;;;;10.88;9.70;;;10.10;99.90;;;;;;4965167;28;20065;-74
2022/05/25 02:10:14;;;;;;;14.32;10.77;;;10.10;99.90;;;;;;4970545;28;20049;-74
2022/05/25 02:13:16;;;;;;;11.52;10.38;;;10.10;99.90;;;;;;4977778;28;20077;-74
2022/05/25 02:16:06;;;;;;;13.45;11.23;;;10.10;99.90;;;;;;4967669;28;20050;-74
2022/05/25 02:19:02;;;;;;;12.13;10.90;;;10.00;99.90;;;;;;4974717;28;20485;-74
2022/05/25 02:21:57;;;;;;;12.15;10.90;;;10.00;99.90;;;;;;4958284;28;20054;-74
2022/05/25 02:24:30;;;;;;;12.60;10.70;;;10.00;99.90;;;;;;4969769;28;20049;-74
2022/05/25 02:27:05;;;;;;;13.18;11.05;;;10.10;99.90;;;;;;4968573;28;20038;-74
2022/05/25 02:29:44;;;;;;;12.38;11.05;;;10.00;99.90;;;;;;4981290;28;20127;-74
2022/05/25 02:32:35;;;;;;;15.10;10.98;;;10.00;99.90;;;;;;4988881;28;20046;-74
2022/05/25 02:35:02;;;;;;;12.48;11.18;;;10.00;99.90;;;;;;4979852;28;20101;-74
2022/05/25 02:37:30;;;;;;;12.75;11.32;;;10.00;99.90;;;;;;4994824;28;20038;-74
2022/05/25 02:39:59;;;;;;;13.85;12.48;;;10.00;99.90;;;;;;4977727;28;20042;-74
2022/05/25 02:42:25;;;;;;;15.48;11.23;;;10.00;99.90;;;;;;4990672;28;20039;-74
2022/05/25 02:44:52;;;;;;;15.65;11.48;;;9.90;99.90;;;;;;4995941;28;20034;-74
2022/05/25 02:47:18;;;;;;;12.60;11.30;;;10.00;99.90;;;;;;4975450;28;20046;-74
2022/05/25 02:49:44;;;;;;;14.50;12.20;;;10.00;99.90;;;;;;4975757;28;20125;-74
2022/05/25 02:52:10;;;;;;;14.30;12.48;;;10.00;99.90;;;;;;4994796;28;20125;-74
2022/05/25 02:54:37;;;;;;;14.38;12.98;;;9.90;99.90;;;;;;4977178;28;20046;-74
2022/05/25 02:57:05;;;;;;;17.02;13.15;;;9.90;99.90;;;;;;4977240;28;20041;-74
2022/05/25 02:59:30;;;;;;;14.30;12.90;;;9.90;99.90;;;;;;4975410;28;20030;-73
2022/05/25 03:01:57;;;;;;;16.83;13.65;;;9.90;99.90;;;;;;4977737;28;20129;-73
2022/05/25 03:04:23;;;;;;;14.90;13.40;;;9.90;99.90;;;;;;4994278;28;20046;-74
2022/05/25 03:06:48;;;;;;;17.30;13.57;;;9.90;99.90;;;;;;4973485;28;20050;-74
2022/05/25 03:09:14;;;;;;;16.50;13.85;;;9.90;99.90;;;;;;4989403;28;20088;-74
2022/05/25 03:11:41;;;;;;;17.98;14.73;;;9.90;99.90;;;;;;4993934;28;20038;-74
2022/05/25 03:14:07;;;;;;;16.95;14.02;;;9.90;99.90;;;;;;4993653;28;20509;-74
2022/05/25 03:16:33;;;;;;;18.13;14.82;;;9.90;99.90;;;;;;4994084;28;20117;-74
2022/05/25 03:18:59;;;;;;;16.77;15.00;;;9.90;99.90;;;;;;4994640;28;20049;-74
2022/05/25 03:21:25;;;;;;;18.38;15.52;;;9.90;99.90;;;;;;4976384;28;20038;-74
2022/05/25 03:23:51;;;;;;;18.60;14.85;;;9.90;99.90;;;;;;4977690;28;20408;-74
2022/05/25 03:26:18;;;;;;;16.38;14.77;;;9.90;99.90;;;;;;4975777;28;20050;-74
2022/05/25 03:28:43;;;;;;;18.58;14.90;;;9.90;99.90;;;;;;4977011;28;20049;-74
2022/05/25 03:31:10;;;;;;;16.88;14.52;;;9.90;99.90;;;;;;4978274;28;20042;-74
2022/05/25 03:33:36;;;;;;;19.70;15.15;;;9.90;99.90;;;;;;4992934;28;20085;-74
2022/05/25 03:36:04;;;;;;;16.38;14.63;;;9.90;99.90;;;;;;4983118;28;20033;-74
2022/05/25 03:38:30;;;;;;;20.05;15.88;;;9.90;99.90;;;;;;4976263;28;20516;-74
2022/05/25 03:40:58;;;;;;;22.02;15.88;;;9.90;99.90;;;;;;4976609;28;20042;-74
2022/05/25 03:43:30;;;;;;;20.13;15.27;;;9.90;99.90;;;;;;4976510;28;20458;-74
2022/05/25 03:45:56;;;;;;;17.15;15.38;;;9.90;99.90;;;;;;4993674;28;20062;-74
2022/05/25 03:48:22;;;;;;;19.88;16.27;;;9.90;99.90;;;;;;4975568;28;20077;-74
2022/05/25 03:50:47;;;;;;;17.27;15.48;;;9.90;99.90;;;;;;4976153;28;20465;-74
2022/05/25 03:53:14;;;;;;;20.50;14.65;;;9.90;99.90;;;;;;4975669;28;20104;-74
2022/05/25 03:55:40;;;;;;;18.05;16.15;;;9.90;99.90;;;;;;4976075;28;20086;-74
2022/05/25 03:58:06;;;;;;;17.95;15.93;;;9.90;99.90;;;;;;4978849;28;20038;-74
2022/05/25 04:00:32;;;;;;;19.92;17.02;;;9.90;99.90;;;;;;4969807;28;20046;-74
2022/05/25 04:03:02;;;;;;;17.88;15.40;;;9.90;99.90;;;;;;4976258;28;20034;-74
2022/05/25 04:05:29;;;;;;;20.27;16.38;;;9.90;99.90;;;;;;4972126;28;20048;-74
2022/05/25 04:07:56;;;;;;;18.35;16.42;;;9.90;99.90;;;;;;4983162;28;20050;-74
2022/05/25 04:10:22;;;;;;;20.58;17.08;;;9.90;99.90;;;;;;4993501;28;20113;-74
2022/05/25 04:12:48;;;;;;;19.10;16.88;;;9.90;99.90;;;;;;4975690;28;20081;-74
2022/05/25 04:15:20;;;;;;;19.58;16.95;;;9.90;99.90;;;;;;4998596;28;20073;-74
2022/05/25 04:17:46;;;;;;;18.55;16.10;;;10.00;99.90;;;;;;4997439;28;20412;-74
2022/05/25 04:20:13;;;;;;;18.52;16.52;;;10.00;99.90;;;;;;4971321;28;20031;-74
2022/05/25 04:22:39;;;;;;;21.55;17.02;;;10.10;99.90;;;;;;4974976;28;20065;-74
2022/05/25 04:25:07;;;;;;;21.35;17.25;;;10.00;99.90;;;;;;4977241;28;20257;-74
2022/05/25 04:27:34;;;;;;;21.02;16.58;;;10.10;99.90;;;;;;4976851;28;20161;-74
2022/05/25 04:29:59;;;;;;;19.30;16.67;;;10.10;99.90;;;;;;4975213;28;20092;-74
2022/05/25 04:32:25;;;;;;;20.83;16.73;;;10.10;99.90;;;;;;4974245;28;20456;-74
2022/05/25 04:34:51;;;;;;;21.83;17.58;;;10.20;99.90;;;;;;4999759;28;20125;-74
2022/05/25 04:40:01;;;;;;;22.33;17.75;;;10.20;99.90;;;;;;4971580;28;20034;-73
2022/05/25 04:42:29;;;;;;;21.17;17.20;;;10.20;99.90;;;;;;4974074;28;20460;-74
2022/05/25 04:45:00;;;;;;;22.15;17.52;;;10.30;99.90;;;;;;4978260;28;20093;-74
2022/05/25 04:47:28;;;;;;;23.58;18.67;;;10.30;99.90;;;;;;4972958;28;20089;-74
2022/05/25 04:49:54;;;;;;;20.42;17.17;;;10.40;99.90;;;;;;4973675;28;20046;-74
2022/05/25 04:52:20;;;;;;;23.35;18.33;;;10.40;99.90;;;;;;4973859;28;20456;-74
2022/05/25 04:54:46;;;;;;;24.55;18.10;;;10.40;99.90;;;;;;4974302;28;20043;-74
2022/05/25 04:57:20;;;;;;;23.52;18.60;;;10.50;99.90;;;;;;4975117;28;20500;-74
2022/05/25 05:00:00;;;;;;;23.73;17.88;;;10.50;99.90;;;;;;4969380;28;20097;-74
2022/05/25 05:02:28;;;;;;;20.60;18.00;;;10.60;99.90;;;;;;4977027;28;20042;-74
2022/05/25 05:04:54;;;;;;;23.55;18.75;;;10.60;99.90;;;;;;4975595;28;20042;-74
2022/05/25 05:07:32;;;;;;;23.13;17.58;;;10.70;99.90;;;;;;4972219;28;20050;-74
2022/05/25 05:09:59;;;;;;;23.00;18.20;;;10.80;99.90;;;;;;4972257;28;20070;-74
2022/05/25 05:12:25;;;;;;;25.23;18.02;;;10.80;99.90;;;;;;4983725;28;20120;-74
2022/05/25 05:14:50;;;;;;;22.75;17.67;;;10.80;99.90;;;;;;4966720;28;20497;-74
2022/05/25 05:17:16;;;;;;;22.20;17.75;;;10.90;99.90;;;;;;4971292;28;20517;-74
2022/05/25 05:19:42;;;;;;;23.00;16.67;;;11.00;99.90;;;;;;4967380;28;20126;-74
2022/05/25 05:22:07;;;;;;;23.10;16.27;;;11.10;99.90;;;;;;4965125;28;20121;-74
2022/05/25 05:24:33;;;;;;;23.02;15.63;;;11.20;99.90;;;;;;4988770;28;20053;-74
2022/05/25 05:26:59;;;;;;;20.55;16.40;;;11.30;99.90;;;;;;4970033;28;20034;-74
2022/05/25 05:29:28;;;;;;;21.98;16.23;;;11.30;99.90;;;;;;4975004;28;20100;-73
2022/05/25 05:31:53;;;;;;;22.88;15.82;;;11.40;99.90;;;;;;4979882;28;20125;-73
2022/05/25 05:34:19;;;;;;;21.58;15.65;;;11.50;99.90;;;;;;4975230;28;20133;-73
2022/05/25 05:36:53;;;;;;;17.92;14.93;;;11.60;99.90;;;;;;4975863;28;20049;-73
2022/05/25 05:39:21;;;;;;;24.13;16.25;;;11.70;99.90;;;;;;4977869;28;20050;-73
2022/05/25 05:41:51;;;;;;;19.92;15.95;;;11.70;99.90;;;;;;4994446;28;20053;-73
2022/05/25 05:44:20;;;;;;;22.70;16.05;;;11.80;99.90;;;;;;4993877;28;20047;-73
2022/05/25 05:46:49;;;;;;;18.58;15.48;;;11.80;99.90;;;;;;4994842;28;20125;-73
2022/05/25 05:49:15;;;;;;;22.98;16.73;;;11.90;99.90;;;;;;4974170;28;20432;-74
2022/05/25 05:51:41;;;;;;;19.63;16.30;;;12.00;99.90;;;;;;4966545;28;20049;-73
2022/05/25 05:54:07;;;;;;;22.63;16.98;;;12.00;99.90;;;;;;4987279;28;20042;-72
2022/05/25 05:56:34;;;;;;;22.25;16.23;;;12.10;99.90;;;;;;4986252;28;20038;-73
2022/05/25 05:59:01;;;;;;;26.75;16.70;;;12.20;99.90;;;;;;4977544;28;20038;-74
2022/05/25 06:01:27;;;;;;;24.63;16.42;;;12.20;99.90;;;;;;4970241;28;20401;-74
2022/05/25 06:03:53;;;;;;;24.35;16.90;;;12.30;99.90;;;;;;4974113;28;20042;-74
2022/05/25 06:06:19;;;;;;;21.20;17.08;;;12.40;99.90;;;;;;4990507;28;20038;-74
2022/05/25 06:08:46;;;;;;;23.55;17.45;;;12.50;99.90;;;;;;4955020;28;20548;-74
2022/05/25 06:11:17;;;;;;;23.77;17.27;;;12.50;99.90;;;;;;4981239;28;20054;-73
2022/05/25 06:13:43;;;;;;;19.23;15.77;;;12.60;99.90;;;;;;4961877;28;20080;-73
2022/05/25 06:21:37;;;;;;;19.08;16.60;;;12.80;99.90;;;;;;4959374;28;20046;-73
2022/05/25 06:24:04;;;;;;;22.52;16.08;;;12.90;99.90;;;;;;4988250;28;20077;-73
2022/05/25 06:26:33;;;;;;;22.75;16.65;;;12.90;99.90;;;;;;4983088;28;20042;-74
2022/05/25 06:29:00;;;;;;;21.00;16.13;;;13.00;99.90;;;;;;4978739;28;20041;-73
2022/05/25 06:31:26;;;;;;;21.27;15.13;;;13.20;99.90;;;;;;4975824;28;20063;-73
2022/05/25 06:33:52;;;;;;;21.08;15.73;;;13.20;99.90;;;;;;4964988;28;20101;-73
2022/05/25 06:36:24;;;;;;;17.02;14.88;;;13.30;99.90;;;;;;4978285;28;20156;-73
2022/05/25 06:38:51;;;;;;;20.45;15.23;;;13.40;99.90;;;;;;4922428;28;20062;-73
2022/05/25 06:41:17;;;;;;;19.10;14.15;;;13.50;99.90;;;;;;4982593;28;20131;-74
2022/05/25 06:43:44;;;;;;;19.70;14.23;;;13.60;99.90;;;;;;4978577;28;20130;-74
2022/05/25 06:46:12;;;;;;;19.08;14.55;;;13.70;99.90;;;;;;4980471;28;20046;-73
2022/05/25 06:48:38;;;;;;;19.92;13.93;;;13.80;99.90;;;;;;4980199;28;20057;-73
2022/05/25 06:51:18;;;;;;;20.40;13.32;;;13.90;99.90;;;;;;4976855;28;20042;-73
2022/05/25 06:53:44;;;;;;;17.75;13.13;;;13.90;99.90;;;;;;4971946;28;20041;-72
2022/05/25 06:56:10;;;;;;;18.92;12.70;;;14.00;99.90;;;;;;4976381;28;20038;-72
2022/05/25 06:58:36;;;;;;;17.35;12.90;;;14.10;99.90;;;;;;4972508;28;20048;-72
2022/05/25 07:01:02;;;;;;;14.77;10.73;;;14.10;99.90;;;;;;4974311;28;20045;-73
2022/05/25 07:03:28;;;;;;;15.38;10.90;;;14.10;99.90;;;;;;4973739;28;20056;-73
2022/05/25 07:05:54;;;;;;;14.57;10.20;;;14.20;99.90;;;;;;4976223;28;20125;-73
2022/05/25 07:08:20;;;;;;;15.18;11.13;;;14.30;99.90;;;;;;4968956;28;20051;-72
2022/05/25 07:10:46;;;;;;;13.23;11.05;;;14.40;99.90;;;;;;4987453;28;20082;-72
2022/05/25 07:13:13;;;;;;;12.43;9.50;;;14.50;99.90;;;;;;4971483;28;20038;-72
2022/05/25 07:15:39;;;;;;;14.40;8.85;;;14.60;99.90;;;;;;4987729;28;20130;-72
2022/05/25 07:18:05;;;;;;;11.40;9.65;;;14.70;99.90;;;;;;4973013;28;20043;-72
2022/05/25 07:20:30;;;;;;;12.07;9.07;;;14.70;99.90;;;;;;4972977;28;20101;-72
2022/05/25 07:22:56;;;;;;;14.00;8.80;;;14.80;99.90;;;;;;4975175;28;20050;-75
2022/05/25 07:25:22;;;;;;;10.10;7.82;;;14.90;99.90;;;;;;4974900;28;20046;-74
2022/05/25 07:27:48;;;;;;;10.90;7.53;;;14.90;99.90;;;;;;4988280;28;20049;-74
2022/05/25 07:30:16;;;;;;;10.65;7.40;;;15.00;99.90;;;;;;4972621;28;20049;-74
2022/05/25 07:32:42;;;;;;;12.30;7.93;;;15.10;99.90;;;;;;4974253;28;20125;-74
2022/05/25 07:35:10;;;;;;;8.82;6.88;;;15.20;99.90;;;;;;4971614;28;20056;-75
2022/05/25 07:37:38;;;;;;;11.20;5.97;;;15.30;99.90;;;;;;4975875;28;20053;-74
2022/05/25 07:40:10;;;;;;;7.88;5.60;;;15.40;99.90;;;;;;4972355;28;20128;-74
2022/05/25 07:42:37;;;;;;;7.30;5.50;;;15.50;99.90;;;;;;4973221;28;20039;-74
2022/05/25 07:45:05;;;;;;;8.77;5.82;;;15.50;99.90;;;;;;4988599;28;20066;-74
2022/05/25 07:47:32;;;;;;;7.00;4.95;;;15.50;99.90;;;;;;4975024;28;20046;-74
2022/05/25 07:49:58;;;;;;;8.23;5.97;;;15.60;99.90;;;;;;4966267;28;20175;-74
2022/05/25 07:52:27;;;;;;;9.00;5.63;;;15.70;99.90;;;;;;4987551;28;20053;-73
2022/05/25 07:54:56;;;;;;;9.57;5.85;;;15.80;99.90;;;;;;4976117;28;20038;-72
2022/05/25 07:57:21;;;;;;;10.45;5.75;;;15.80;99.90;;;;;;4990179;28;20092;-73
2022/05/25 07:59:47;;;;;;;9.20;5.45;;;15.90;99.90;;;;;;4967510;28;20038;-71
2022/05/25 08:07:54;;;;;;;8.52;5.70;;;15.80;99.90;;;;;;4968874;28;20138;-74
2022/05/25 08:10:24;;;;;;;8.38;5.43;;;15.80;99.90;;;;;;4956753;28;20054;-74
2022/05/25 08:12:53;;;;;;;8.82;6.00;;;15.80;99.90;;;;;;4975271;28;20053;-74
2022/05/25 08:15:18;;;;;;;8.23;5.45;;;16.00;99.90;;;;;;4970158;28;20039;-75
2022/05/25 08:17:44;;;;;;;9.32;5.25;;;16.10;99.90;;;;;;4959044;28;20053;-74
2022/05/25 08:20:11;;;;;;;8.07;5.20;;;16.10;99.90;;;;;;4970090;28;20658;-74
2022/05/25 08:22:37;;;;;;;7.57;5.75;;;16.10;99.90;;;;;;4976185;28;20042;-74
2022/05/25 08:25:04;;;;;;;5.72;4.18;;;16.10;99.90;;;;;;4975200;28;20065;-74
2022/05/25 08:27:31;;;;;;;5.15;4.18;;;16.10;99.90;;;;;;4974864;28;20043;-74
2022/05/25 08:29:57;;;;;;;12.60;5.20;;;16.30;99.90;;;;;;4986797;28;20058;-73
2022/05/25 08:32:23;;;;;;;8.10;5.20;;;16.30;99.90;;;;;;4975299;28;20053;-74
2022/05/25 08:34:49;;;;;;;4.65;3.33;;;16.50;99.90;;;;;;4970558;28;20041;-74
2022/05/25 08:37:14;;;;;;;7.95;3.65;;;16.50;99.90;;;;;;4971821;28;20074;-74
2022/05/25 08:39:40;;;;;;;8.27;4.10;;;16.80;99.90;;;;;;4967087;28;20046;-73
2022/05/25 08:42:12;;;;;;;8.48;4.60;;;17.10;99.90;;;;;;4972962;28;20104;-74
2022/05/25 08:44:41;;;;;;;7.65;4.50;;;17.30;99.90;;;;;;4971531;28;20062;-72
2022/05/25 08:47:10;;;;;;;4.93;3.40;;;17.30;99.90;;;;;;4990786;28;20049;-71
2022/05/25 08:49:47;;;;;;;4.38;3.00;;;17.40;99.90;;;;;;5081178;27;20413;-72
2022/05/25 08:52:32;;;;;;;7.60;3.33;;;17.30;99.90;;;;;;5083804;28;20048;-73
2022/05/25 08:54:59;;;;;;;6.20;3.42;;;17.30;99.90;;;;;;5065424;28;20037;-71
2022/05/25 08:57:42;;;;;;;4.60;3.03;;;17.10;99.90;;;;;;5065382;28;20045;-72
2022/05/25 09:00:12;;;;;;;4.00;2.58;;;17.00;99.90;;;;;;5064288;28;20041;-73
2022/05/25 09:03:10;;;;;;;3.95;2.90;;;17.00;99.90;;;;;;5065196;28;20032;-74
2022/05/25 09:05:46;;;;;;;4.25;3.00;;;17.00;99.90;;;;;;5065110;28;20036;-73
2022/05/25 09:08:45;;;;;;;6.00;3.50;;;17.10;99.90;;;;;;5064600;28;22605;-74
2022/05/25 09:11:18;;;;;;;5.25;2.70;;;17.10;99.90;;;;;;5066219;28;20044;-74
2022/05/25 09:13:55;;;;;;;8.18;3.17;;;16.80;99.90;;;;;;5065409;28;20116;-75
2022/05/25 09:16:23;;;;;;;4.65;2.97;;;16.90;99.90;;;;;;5062333;28;20082;-75
2022/05/25 09:19:17;;;;;;;4.10;2.80;;;16.80;99.90;;;;;;5064430;28;20037;-75
2022/05/25 09:21:55;;;;;;;4.70;3.25;;;16.90;99.90;;;;;;5064242;28;20079;-75
2022/05/25 09:24:22;;;;;;;4.93;3.50;;;17.00;99.90;;;;;;5082922;28;20036;-75
2022/05/25 09:26:49;;;;;;;4.78;2.88;;;17.10;99.90;;;;;;5066010;28;20125;-75
2022/05/25 09:29:15;;;;;;;4.22;3.05;;;17.20;99.90;;;;;;5064476;28;20049;-75
2022/05/25 09:31:58;;;;;;;6.25;3.00;;;17.30;99.90;;;;;;5065366;28;20036;-75
2022/05/25 09:34:47;;;;;;;6.30;3.08;;;17.60;99.90;;;;;;5047495;28;20047;-75
2022/05/25 09:37:43;;;;;;;5.05;3.10;;;17.80;99.90;;;;;;5061915;28;20044;-73
2022/05/25 09:40:19;;;;;;;5.57;3.17;;;17.80;99.90;;;;;;5065097;28;20406;-73
2022/05/25 09:42:57;;;;;;;8.25;2.92;;;18.00;99.90;;;;;;5063255;28;20044;-73
2022/05/25 09:45:25;;;;;;;5.55;3.53;;;18.10;99.90;;;;;;5065761;28;20028;-73
2022/05/25 09:47:52;;;;;;;7.53;3.55;;;18.20;99.90;;;;;;5066341;28;20036;-73
2022/05/25 09:50:26;;;;;;;4.03;3.60;;;18.20;99.90;;;;;;5060415;28;20041;-73
2022/05/25 09:52:53;;;;;;;5.70;3.53;;;18.20;99.90;;;;;;5064122;28;20020;-73
2022/05/25 09:55:31;;;;;;;2.95;2.65;;;18.20;99.90;;;;;;5060578;28;20045;-72
2022/05/25 09:58:09;;;;;;;5.65;2.97;;;18.30;99.90;;;;;;5059461;28;20060;-73
2022/05/25 10:00:35;;;;;;;5.88;3.00;;;18.40;99.90;;;;;;5048679;28;20044;-73
2022/05/25 10:03:20;;;;;;;6.70;3.53;;;18.20;99.90;;;;;;5047104;28;20040;-73
2022/05/25 10:06:01;;;;;;;7.47;3.10;;;18.10;99.90;;;;;;5045915;28;20044;-73
2022/05/25 10:08:39;;;;;;;6.22;3.50;;;18.20;99.90;;;;;;5045262;28;20164;-73
2022/05/25 10:11:31;;;;;;;7.80;3.38;;;18.20;99.90;;;;;;5047117;28;20080;-74
2022/05/25 10:14:32;;;;;;;5.10;3.67;;;18.20;99.90;;;;;;5050666;28;20957;-74
2022/05/25 10:17:07;;;;;;;5.68;3.60;;;18.10;99.90;;;;;;5050127;28;20037;-73
2022/05/25 10:19:44;;;;;;;6.05;3.83;;;18.00;99.90;;;;;;5048197;28;20067;-73
2022/05/25 10:22:23;;;;;;;4.60;3.50;;;18.00;99.90;;;;;;5048883;28;20495;-73
2022/05/25 10:25:03;;;;;;;7.10;4.03;;;17.90;99.90;;;;;;5049858;28;20575;-73
2022/05/25 10:27:43;;;;;;;7.38;3.30;;;17.70;99.90;;;;;;5048141;28;20049;-73
2022/05/25 10:38:50;;;;;;;7.70;2.10;;;18.60;99.90;;;;;;5044858;28;20044;-73
2022/05/25 10:41:39;;;;;;;4.25;2.20;;;18.90;99.90;;;;;;5050485;28;20041;-73
2022/05/25 10:44:12;;;;;;;5.13;2.33;;;18.70;99.90;;;;;;5049094;28;20471;-73
2022/05/25 10:46:41;;;;;;;4.45;1.42;;;18.90;99.90;;;;;;5050075;28;20402;-73
2022/05/25 10:49:20;;;;;;;8.80;2.40;;;18.80;93.10;;;;;;5049167;28;20045;-73
2022/05/25 10:52:18;;;;;;;8.00;2.60;;;18.30;92.10;;;;;;5049630;28;20150;-73
2022/05/25 10:54:53;;;;;;;8.27;2.30;;;18.20;95.90;;;;;;5047568;28;20499;-73
2022/05/25 10:57:37;;;;;;;2.55;1.85;;;18.40;99.90;;;;;;5051688;28;20049;-73
2022/05/25 11:00:09;;;;;;;4.65;2.00;;;18.60;99.90;;;;;;5029240;28;20083;-73
2022/05/25 11:03:06;;;;;;;2.43;1.80;;;19.00;99.90;;;;;;5048566;28;20463;-73
2022/05/25 11:05:45;;;;;;;9.93;2.10;;;19.20;96.70;;;;;;5050620;28;20398;-73
2022/05/25 11:08:24;;;;;;;9.90;3.03;;;19.10;93.10;;;;;;5050072;28;20090;-73
2022/05/25 11:11:14;;;;;;;7.72;2.67;;;18.50;94.20;;;;;;5048794;28;20048;-73
2022/05/25 11:13:58;;;;;;;7.95;2.80;;;18.40;90.70;;;;;;5049931;28;20033;-73
2022/05/25 11:16:45;;;;;;;9.27;2.70;;;18.60;95.20;;;;;;5050076;28;20394;-73
2022/05/25 11:19:43;;;;;;;9.52;2.38;;;18.80;99.60;;;;;;5047995;28;20068;-73
2022/05/25 11:22:27;;;;;;;4.00;2.50;;;19.00;90.80;;;;;;5049148;28;20041;-73
2022/05/25 11:25:19;;;;;;;5.68;3.20;;;18.90;95.70;;;;;;5050947;28;20460;-73
2022/05/25 11:27:58;;;;;;;9.73;3.17;;;19.10;96.50;;;;;;5049148;28;20414;-73
2022/05/25 11:31:01;;;;;;;5.57;2.72;;;19.00;96.20;;;;;;5047088;28;20123;-73
2022/05/25 11:33:59;;;;;;;6.75;2.97;;;18.90;91.80;;;;;;5049946;28;20424;-73
2022/05/25 11:36:59;;;;;;;6.13;2.90;;;18.40;94.30;;;;;;5047768;28;20063;-73
2022/05/25 11:39:54;;;;;;;7.20;2.72;;;18.30;98.50;;;;;;5045608;28;20086;-73
2022/05/25 11:42:39;;;;;;;6.20;3.03;;;17.90;97.90;;;;;;5049163;28;20136;-73
2022/05/25 11:45:26;;;;;;;5.13;3.00;;;18.00;99.90;;;;;;5048546;28;20059;-73
2022/05/25 11:48:34;;;;;;;6.57;3.45;;;18.00;99.90;;;;;;5048415;28;20051;-73
2022/05/25 11:51:18;;;;;;;6.88;3.65;;;17.80;99.90;;;;;;5045351;28;20071;-73
2022/05/25 11:54:03;;;;;;;6.78;3.45;;;17.70;99.90;;;;;;5047458;28;20024;-73
2022/05/25 11:56:35;;;;;;;9.70;4.00;;;17.50;99.90;;;;;;5047577;28;20033;-73
2022/05/25 11:59:14;;;;;;;9.20;5.03;;;17.00;99.90;;;;;;5049220;28;20099;-73
2022/05/25 12:02:15;;;;;;;8.93;6.20;;;16.80;99.90;;;;;;5045567;28;20379;-72
2022/05/25 12:05:11;;;;;;;12.38;6.80;;;16.30;99.90;;;;;;5046848;28;20055;-73
2022/05/25 12:08:03;;;;;;;10.50;7.28;;;15.60;99.90;;;;;;5046352;28;21966;-72
2022/05/25 12:10:53;;;;;;;11.88;7.75;;;15.60;99.90;;;;;;5045808;28;20044;-73
2022/05/25 12:13:33;;;;;;;9.30;7.40;;;15.80;99.90;;;;;;5047414;28;20063;-73
2022/05/25 12:16:07;;;;;;;7.47;5.55;;;16.00;99.90;;;;;;5047433;28;20090;-73
2022/05/25 12:19:04;;;;;;;5.78;4.30;;;16.30;99.90;;;;;;5045599;28;20087;-74
2022/05/25 12:21:47;;;;;;;6.18;4.20;;;16.70;99.90;;;;;;5046234;28;20044;-74
2022/05/25 12:24:41;;;;;;;7.65;4.20;;;16.90;99.90;;;;;;5042531;28;20032;-73
2022/05/25 12:27:12;;;;;;;6.38;3.85;;;17.20;99.90;;;;;;5046700;28;20041;-74
2022/05/25 12:29:53;;;;;;;5.53;3.92;;;17.40;99.90;;;;;;5047336;28;20053;-73
2022/05/25 12:32:20;;;;;;;5.25;3.63;;;17.50;99.90;;;;;;5050257;28;20036;-74
2022/05/25 12:34:50;;;;;;;5.95;2.88;;;17.60;99.90;;;;;;5041421;28;20036;-74
2022/05/25 12:37:27;;;;;;;6.35;2.95;;;17.50;99.90;;;;;;5040947;28;20136;-74
2022/05/25 12:39:55;;;;;;;4.88;2.00;;;17.50;99.90;;;;;;5043672;28;20033;-73
2022/05/25 12:42:32;;;;;;;4.35;1.80;;;17.30;99.90;;;;;;5042188;28;20044;-74
2022/05/25 12:50:47;;;;;;;4.35;2.08;;;16.80;99.90;;;;;;5036383;28;20040;-74
2022/05/25 12:53:24;;;;;;;3.92;1.92;;;16.60;99.90;;;;;;5040871;28;20034;-74
2022/05/25 12:55:54;;;;;;;5.78;1.80;;;16.60;99.90;;;;;;5041581;28;20045;-74
2022/05/25 12:58:40;;;;;;;5.97;1.30;;;16.60;99.90;;;;;;5059811;28;20044;-74
2022/05/25 13:01:22;;;;;;;5.85;1.75;;;16.70;99.90;;;;;;5048332;28;20037;-74
2022/05/25 13:03:48;;;;;;;;;;;16.90;99.90;;;;;;5043657;28;20067;-74
2022/05/25 13:06:17;;;;;;;9.90;1.50;;;17.10;99.90;;;;;;5028450;28;19920;-74
2022/05/25 13:08:49;;;;;;;8.35;1.88;;;17.30;99.90;;;;;;5049232;28;20124;-74
2022/05/25 13:11:35;;;;;;;4.90;1.50;;;17.60;99.90;;;;;;5046168;28;20036;-74
2022/05/25 13:14:16;;;;;;;6.93;1.50;;;17.70;99.90;;;;;;5039979;28;20045;-74
2022/05/25 13:16:42;;;;;;;4.95;1.42;;;17.80;99.90;;;;;;5043097;28;20059;-74
2022/05/25 13:19:32;;;;;;;4.78;1.42;;;17.80;99.90;;;;;;5047286;28;20665;-74
2022/05/25 13:22:04;;;;;;;8.65;1.52;;;17.90;99.90;;;;;;5043532;28;20079;-74
2022/05/25 13:24:29;;;;;;;6.22;1.30;;;18.00;99.90;;;;;;5044218;28;20057;-74
2022/05/25 13:27:14;;;;;;;7.20;1.33;;;18.20;99.90;;;;;;5046262;28;20111;-74
2022/05/25 13:29:42;;;;;;;3.72;1.13;;;18.40;96.70;;;;;;5039667;28;20121;-71
2022/05/25 13:32:33;;;;;;;3.42;1.20;;;18.40;94.40;;;;;;5046548;28;20037;-74
2022/05/25 13:35:20;;;;;;;6.93;1.30;;;18.60;92.80;;;;;;5048002;28;20104;-73
2022/05/25 13:38:27;;;;;;;2.92;1.13;;;18.70;89.90;;;;;;5053218;28;20055;-73
2022/05/25 13:41:02;;;;;;;6.60;0.90;;;18.70;86.80;;;;;;5010369;28;20087;-73
2022/05/25 13:43:44;;;;;;;2.97;1.15;;;18.60;90.70;;;;;;5047901;28;20045;-74